Time;durP1;ratioP1;P1;durP2;ratioP2;P2;SDS_P1;SDS_P2;PMS_P1;PMS_P2;Temp;Humidity;BMP_temperature;BMP_pressure;BME280_temperature;BME280_humidity;BME280_pressure;Samples;Min_cycle;Max_cycle;Signal;HPM_P1;HPM_P2
2024/03/24 00:02:21;;;;;;;11.70;7.50;;;;;;;4.82;85.18;98884.05;103257;1257;124307;-74
2024/03/24 00:04:49;;;;;;;11.90;7.80;;;;;;;4.81;85.12;98877.73;103400;1253;97914;-74
2024/03/24 00:07:15;;;;;;;13.70;8.00;;;;;;;4.82;84.99;98874.58;103461;1254;111489;-74
2024/03/24 00:09:40;;;;;;;;;;;;;;;4.80;84.91;98878.11;103262;1254;139287;-74
2024/03/24 00:12:07;;;;;;;15.10;8.00;;;;;;;4.77;84.99;98883.54;103443;1256;97840;-74
2024/03/24 00:14:36;;;;;;;14.00;8.50;;;;;;;4.77;84.96;98887.16;103342;1256;139135;-74
2024/03/24 00:17:02;;;;;;;16.40;9.00;;;;;;;4.73;84.63;98888.31;103457;1256;97989;-74
2024/03/24 00:19:29;;;;;;;14.30;8.80;;;;;;;4.72;84.80;98893.51;103366;1254;111529;-74
2024/03/24 00:21:55;;;;;;;15.10;8.80;;;;;;;4.74;85.05;98893.45;103304;1254;138006;-74
2024/03/24 00:24:22;;;;;;;12.50;8.60;;;;;;;4.73;84.78;98888.14;103689;1253;97896;-74
2024/03/24 00:26:48;;;;;;;12.10;8.50;;;;;;;4.72;84.54;98883.36;103370;1256;139469;-74
2024/03/24 00:29:14;;;;;;;16.60;8.70;;;;;;;4.70;84.71;98880.84;103421;1253;97952;-74
2024/03/24 00:31:41;;;;;;;12.60;8.50;;;;;;;4.67;84.57;98880.23;103515;1257;138136;-72
2024/03/24 00:34:07;;;;;;;14.00;8.80;;;;;;;4.66;84.41;98879.22;103593;1253;107892;-74
2024/03/24 00:36:34;;;;;;;14.60;7.80;;;;;;;4.65;84.56;98874.60;103414;1254;97917;-74
2024/03/24 00:39:01;;;;;;;12.70;8.10;;;;;;;4.64;84.72;98868.09;103435;1254;137997;-73
2024/03/24 00:41:27;;;;;;;11.70;7.70;;;;;;;4.61;84.40;98866.64;104231;1253;98496;-74
2024/03/24 00:43:53;;;;;;;11.50;6.80;;;;;;;4.59;84.42;98865.70;103385;1254;138098;-75
2024/03/24 00:46:20;;;;;;;11.30;7.00;;;;;;;4.56;84.13;98863.71;103525;1253;106630;-74
2024/03/24 00:48:46;;;;;;;9.40;6.20;;;;;;;4.51;84.22;98859.54;103639;1253;97929;-74
2024/03/24 00:51:13;;;;;;;15.00;6.40;;;;;;;4.48;84.12;98855.85;103419;1252;137998;-73
2024/03/24 00:53:39;;;;;;;9.80;5.90;;;;;;;4.45;84.29;98855.74;103541;1253;97834;-73
2024/03/24 00:56:07;;;;;;;11.10;5.00;;;;;;;4.42;84.27;98851.88;103428;1256;138361;-73
2024/03/24 00:58:33;;;;;;;7.70;5.30;;;;;;;4.40;84.20;98848.35;103808;1253;107727;-71
2024/03/24 01:01:00;;;;;;;10.80;5.60;;;;;;;4.36;84.29;98839.20;103623;1253;98300;-71
2024/03/24 01:03:27;;;;;;;12.20;5.40;;;;;;;4.31;84.23;98836.73;103466;1256;137991;-71
2024/03/24 01:05:54;;;;;;;8.90;5.40;;;;;;;4.29;84.38;98838.70;103542;1253;97782;-73
2024/03/24 01:08:21;;;;;;;8.70;4.90;;;;;;;4.27;84.78;98844.75;103421;1253;137923;-73
2024/03/24 01:10:47;;;;;;;10.00;5.40;;;;;;;4.27;84.86;98838.23;103555;1253;107812;-73
2024/03/24 01:13:14;;;;;;;10.30;5.60;;;;;;;4.28;85.08;98833.73;103512;1253;97803;-73
2024/03/24 01:15:44;;;;;;;10.60;6.00;;;;;;;4.27;84.89;98827.38;103336;1256;138179;-72
2024/03/24 01:18:11;;;;;;;9.70;5.90;;;;;;;4.29;85.18;98831.95;103599;1253;98625;-72
2024/03/24 01:20:37;;;;;;;13.50;5.50;;;;;;;4.28;85.17;98831.31;103325;1253;138878;-71
2024/03/24 01:23:05;;;;;;;11.00;5.40;;;;;;;4.26;84.98;98836.34;103533;1254;108256;-72
2024/03/24 01:25:31;;;;;;;11.40;5.20;;;;;;;4.23;85.03;98836.10;103593;1253;98346;-71
2024/03/24 01:27:58;;;;;;;9.70;4.90;;;;;;;4.19;84.95;98838.63;103471;1253;137790;-73
2024/03/24 01:30:25;;;;;;;9.80;4.80;;;;;;;4.15;84.93;98838.25;103448;1254;97813;-71
2024/03/24 01:32:51;;;;;;;9.40;4.90;;;;;;;4.11;85.17;98833.69;103436;1253;137940;-71
2024/03/24 01:35:19;;;;;;;9.10;4.50;;;;;;;4.07;85.04;98836.72;102794;1253;1003705;-72
2024/03/24 01:37:46;;;;;;;7.90;5.00;;;;;;;4.03;84.90;98838.75;103450;1253;138325;-72
2024/03/24 01:40:13;;;;;;;9.30;4.90;;;;;;;3.99;84.93;98838.16;103856;1253;107803;-72
2024/03/24 01:42:40;;;;;;;11.60;5.10;;;;;;;3.97;85.07;98839.96;103976;1256;97871;-72
2024/03/24 01:45:09;;;;;;;8.60;5.20;;;;;;;3.93;85.38;98833.50;103667;1253;137193;-72
2024/03/24 01:47:35;;;;;;;9.40;6.00;;;;;;;3.90;85.36;98830.83;103801;1253;106107;-72
2024/03/24 01:50:06;;;;;;;9.70;5.90;;;;;;;3.87;85.64;98820.44;103594;1253;137224;-70
2024/03/24 01:52:35;;;;;;;7.60;5.00;;;;;;;3.84;85.64;98808.32;103723;1253;105748;-70
2024/03/24 01:55:03;;;;;;;8.50;5.00;;;;;;;3.84;85.59;98812.98;103723;1253;97808;-71
2024/03/24 01:57:30;;;;;;;8.60;4.90;;;;;;;3.80;85.54;98816.71;103305;1253;136846;-71
2024/03/24 01:59:57;;;;;;;7.90;5.40;;;;;;;3.77;85.62;98825.71;103770;1256;107092;-72
2024/03/24 02:02:24;;;;;;;8.80;5.00;;;;;;;3.75;85.79;98823.86;103347;1254;138198;-72
2024/03/24 02:04:51;;;;;;;8.70;5.00;;;;;;;3.72;85.36;98813.12;102809;1251;1002899;-72
2024/03/24 02:07:17;;;;;;;8.30;4.90;;;;;;;3.69;85.77;98810.81;103514;1251;97820;-72
2024/03/24 02:09:45;;;;;;;8.10;5.10;;;;;;;3.67;85.94;98803.64;103515;1255;138066;-72
2024/03/24 02:12:11;;;;;;;7.80;5.20;;;;;;;3.65;85.92;98798.36;103600;1251;107419;-72
2024/03/24 02:14:38;;;;;;;8.40;5.40;;;;;;;3.64;86.28;98795.14;103474;1257;138928;-72
2024/03/24 02:17:03;;;;;;;;;;;;;;;3.64;86.22;98796.33;103623;1251;107817;-72
2024/03/24 02:19:30;;;;;;;11.10;5.40;;;;;;;3.61;86.42;98798.31;103672;1256;97743;-72
2024/03/24 02:21:56;;;;;;;7.70;5.40;;;;;;;3.58;86.35;98811.94;97476;1251;1004351;-70
2024/03/24 02:24:23;;;;;;;6.70;5.20;;;;;;;3.56;86.53;98815.95;103734;1251;108193;-72
2024/03/24 02:26:50;;;;;;;8.80;5.80;;;;;;;3.54;86.53;98812.58;103504;1256;138300;-72
2024/03/24 02:29:17;;;;;;;9.50;6.00;;;;;;;3.54;86.65;98807.42;103560;1252;107838;-71
2024/03/24 02:31:43;;;;;;;9.80;6.20;;;;;;;3.52;87.02;98795.63;103447;1251;138865;-72
2024/03/24 02:34:10;;;;;;;8.20;5.50;;;;;;;3.50;86.86;98789.48;103654;1251;111147;-71
2024/03/24 02:36:37;;;;;;;9.00;5.70;;;;;;;3.47;86.79;98791.11;101954;1254;1015754;-71
2024/03/24 02:39:05;;;;;;;8.80;5.70;;;;;;;3.45;86.82;98804.05;103513;1253;138330;-70
2024/03/24 02:41:32;;;;;;;8.20;6.10;;;;;;;3.44;86.91;98810.63;103642;1251;108353;-71
2024/03/24 02:43:58;;;;;;;10.00;6.50;;;;;;;3.42;87.13;98814.63;103501;1256;138205;-71
2024/03/24 02:46:25;;;;;;;9.60;6.30;;;;;;;3.42;87.25;98822.54;103638;1251;111821;-72
2024/03/24 02:48:51;;;;;;;10.50;6.60;;;;;;;3.42;87.39;98824.42;102847;1253;1002881;-72
2024/03/24 02:51:17;;;;;;;10.50;7.70;;;;;;;3.40;87.03;98829.27;103566;1255;139784;-71
2024/03/24 02:53:44;;;;;;;11.90;7.50;;;;;;;3.37;87.20;98832.08;103897;1251;107524;-71
2024/03/24 02:56:13;;;;;;;11.80;7.20;;;;;;;3.37;87.30;98842.76;103500;1251;139579;-72
2024/03/24 02:58:39;;;;;;;11.40;8.20;;;;;;;3.33;87.37;98854.55;103613;1251;112914;-71
2024/03/24 03:01:07;;;;;;;11.90;8.30;;;;;;;3.27;87.16;98858.80;103829;1256;106688;-71
2024/03/24 03:03:35;;;;;;;14.10;9.40;;;;;;;3.21;87.55;98860.65;103487;1253;138317;-71
2024/03/24 03:06:02;;;;;;;11.10;9.10;;;;;;;3.19;87.76;98866.55;101998;1257;1003734;-71
2024/03/24 03:08:28;;;;;;;14.90;10.00;;;;;;;3.18;87.89;98872.76;103234;1256;138474;-71
2024/03/24 03:10:55;;;;;;;12.50;9.40;;;;;;;3.16;88.19;98880.02;103547;1253;112838;-71
2024/03/24 03:13:21;;;;;;;13.90;10.10;;;;;;;3.11;88.25;98877.07;103504;1253;107735;-71
2024/03/24 03:15:48;;;;;;;16.00;9.60;;;;;;;3.12;88.51;98871.55;103392;1256;140465;-70
2024/03/24 03:18:14;;;;;;;14.50;9.90;;;;;;;3.11;88.73;98869.00;103515;1253;108573;-71
2024/03/24 03:20:41;;;;;;;13.10;9.80;;;;;;;3.10;88.64;98861.30;103373;1253;138934;-71
2024/03/24 03:23:07;;;;;;;11.70;9.20;;;;;;;3.07;88.71;98853.65;103494;1254;111924;-71
2024/03/24 03:25:35;;;;;;;11.30;9.30;;;;;;;3.06;88.82;98856.92;103393;1253;110689;-71
2024/03/24 03:28:02;;;;;;;14.10;10.30;;;;;;;3.03;88.94;98854.04;103632;1253;98577;-70
2024/03/24 03:30:28;;;;;;;12.40;9.80;;;;;;;3.04;88.98;98855.23;103465;1253;109159;-70
2024/03/24 03:32:55;;;;;;;12.00;9.90;;;;;;;3.06;89.12;98858.65;102635;1253;1002843;-69
2024/03/24 03:35:23;;;;;;;14.40;9.50;;;;;;;3.09;89.09;98856.52;103512;1253;113466;-69
2024/03/24 03:37:49;;;;;;;13.80;9.50;;;;;;;3.09;89.12;98859.10;103407;1256;139692;-69
2024/03/24 03:40:16;;;;;;;15.20;9.40;;;;;;;3.10;89.35;98856.65;103606;1256;97709;-69
2024/03/24 03:42:43;;;;;;;14.10;8.80;;;;;;;3.11;89.17;98855.09;103343;1253;107279;-69
2024/03/24 03:45:12;;;;;;;11.40;8.60;;;;;;;3.11;89.15;98849.96;103403;1253;138207;-69
2024/03/24 03:47:39;;;;;;;13.00;9.20;;;;;;;3.10;89.10;98839.84;103542;1253;110750;-69
2024/03/24 03:50:13;;;;;;;12.20;8.40;;;;;;;3.10;89.22;98840.52;103450;1253;138472;-69
2024/03/24 03:52:39;;;;;;;13.60;8.30;;;;;;;3.09;89.39;98834.19;103712;1253;97943;-69
2024/03/24 03:55:11;;;;;;;13.80;8.60;;;;;;;3.08;88.87;98833.55;103375;1253;107580;-69
2024/03/24 03:57:38;;;;;;;11.30;7.70;;;;;;;3.07;89.08;98829.09;103471;1253;138203;-70
2024/03/24 04:00:10;;;;;;;12.20;7.70;;;;;;;3.07;89.19;98828.92;103489;1256;111685;-69
2024/03/24 04:02:40;;;;;;;14.10;8.60;;;;;;;3.05;89.22;98826.73;103420;1254;138198;-69
2024/03/24 04:05:09;;;;;;;14.50;8.00;;;;;;;3.02;89.19;98822.81;103689;1253;97799;-69
2024/03/24 04:07:36;;;;;;;10.10;8.20;;;;;;;3.02;88.97;98821.45;103577;1253;107978;-70
2024/03/24 04:10:03;;;;;;;14.20;8.50;;;;;;;3.01;89.25;98815.98;103485;1253;97855;-69
2024/03/24 04:12:29;;;;;;;12.60;7.90;;;;;;;3.01;89.15;98813.59;103824;1253;110332;-69
2024/03/24 04:14:56;;;;;;;14.20;8.60;;;;;;;3.01;89.32;98811.52;103439;1253;138211;-69
2024/03/24 04:17:23;;;;;;;14.20;7.70;;;;;;;3.01;89.24;98809.46;103577;1256;97863;-70
2024/03/24 04:19:49;;;;;;;10.40;7.60;;;;;;;3.01;89.26;98806.87;103419;1253;138814;-69
2024/03/24 04:22:17;;;;;;;17.10;8.20;;;;;;;3.02;89.33;98804.45;103552;1253;97892;-70
2024/03/24 04:24:43;;;;;;;12.60;7.70;;;;;;;3.02;89.23;98801.89;103572;1255;111285;-69
2024/03/24 04:27:10;;;;;;;12.80;8.10;;;;;;;3.04;89.27;98802.16;103713;1254;138247;-70
2024/03/24 04:29:36;;;;;;;16.30;8.80;;;;;;;3.05;89.23;98803.02;103540;1254;98380;-69
2024/03/24 04:32:03;;;;;;;13.00;7.80;;;;;;;3.05;89.40;98806.11;103621;1253;138767;-69
2024/03/24 04:34:29;;;;;;;14.20;8.30;;;;;;;3.03;88.99;98802.36;103698;1252;97827;-69
2024/03/24 04:36:56;;;;;;;15.30;7.30;;;;;;;3.05;89.32;98806.11;103588;1253;111781;-69
2024/03/24 04:39:24;;;;;;;13.70;7.90;;;;;;;3.04;89.09;98808.52;103341;1254;138694;-69
2024/03/24 04:41:50;;;;;;;11.40;7.70;;;;;;;3.05;89.34;98809.55;103769;1253;97842;-69
2024/03/24 04:44:17;;;;;;;10.70;7.90;;;;;;;3.07;89.34;98810.73;103387;1253;138206;-69
2024/03/24 04:46:43;;;;;;;12.90;7.80;;;;;;;3.08;89.53;98814.30;103588;1256;97670;-69
2024/03/24 04:49:10;;;;;;;15.10;8.20;;;;;;;3.10;89.64;98813.89;103425;1253;111355;-69
2024/03/24 04:51:37;;;;;;;12.90;7.60;;;;;;;3.15;89.69;98819.09;103570;1253;139435;-69
2024/03/24 04:54:05;;;;;;;16.20;8.40;;;;;;;3.19;89.67;98820.35;103483;1253;97700;-68
2024/03/24 04:56:34;;;;;;;12.50;8.10;;;;;;;3.21;89.31;98824.41;103348;1256;138390;-68
2024/03/24 04:59:01;;;;;;;13.50;8.10;;;;;;;3.24;89.29;98824.36;103818;1253;97833;-70
2024/03/24 05:01:28;;;;;;;13.10;8.20;;;;;;;3.28;89.33;98822.89;103452;1253;111333;-71
2024/03/24 05:03:54;;;;;;;11.70;7.60;;;;;;;3.32;89.46;98823.28;103291;1254;138315;-70
2024/03/24 05:06:21;;;;;;;12.60;7.80;;;;;;;3.35;89.30;98821.33;103487;1253;98519;-70
2024/03/24 05:08:47;;;;;;;13.00;7.70;;;;;;;3.38;89.45;98827.60;103297;1254;138052;-69
2024/03/24 05:11:14;;;;;;;12.50;7.70;;;;;;;3.41;89.38;98826.85;103443;1252;97711;-69
2024/03/24 05:13:41;;;;;;;16.10;8.30;;;;;;;3.43;89.35;98823.19;102671;1253;1003001;-70
2024/03/24 05:16:10;;;;;;;12.00;8.10;;;;;;;3.45;89.37;98824.84;103467;1253;107655;-70
2024/03/24 05:18:37;;;;;;;13.50;7.80;;;;;;;3.48;88.97;98822.36;103465;1253;119680;-68
2024/03/24 05:21:04;;;;;;;12.00;8.20;;;;;;;3.52;89.07;98821.90;103319;1253;139243;-69
2024/03/24 05:23:30;;;;;;;15.10;7.90;;;;;;;3.55;89.14;98821.80;103621;1253;97930;-69
2024/03/24 05:25:57;;;;;;;15.40;8.30;;;;;;;3.58;89.01;98821.91;103475;1253;138620;-68
2024/03/24 05:28:23;;;;;;;15.70;8.00;;;;;;;3.62;89.09;98820.27;103546;1252;108918;-68
2024/03/24 05:30:52;;;;;;;14.30;7.70;;;;;;;3.67;88.94;98816.02;103498;1253;98448;-68
2024/03/24 05:33:19;;;;;;;12.30;8.20;;;;;;;3.69;88.79;98813.72;103354;1256;138436;-67
2024/03/24 05:35:45;;;;;;;15.40;8.50;;;;;;;3.72;88.69;98809.87;103421;1253;97815;-68
2024/03/24 05:38:12;;;;;;;11.30;8.00;;;;;;;3.75;88.74;98806.86;103376;1253;138745;-68
2024/03/24 05:40:39;;;;;;;16.40;9.10;;;;;;;3.77;88.47;98810.59;103421;1253;106591;-68
2024/03/24 05:43:06;;;;;;;14.10;9.00;;;;;;;3.81;88.57;98812.90;103606;1253;96964;-68
2024/03/24 05:45:36;;;;;;;16.30;9.40;;;;;;;3.84;88.49;98814.35;103638;1253;139268;-68
2024/03/24 05:48:03;;;;;;;18.50;9.10;;;;;;;3.88;88.49;98814.06;103548;1254;97785;-67
2024/03/24 05:50:29;;;;;;;15.60;9.40;;;;;;;3.92;88.45;98815.31;103546;1254;138149;-68
2024/03/24 05:52:56;;;;;;;18.00;10.10;;;;;;;3.94;88.26;98810.45;103585;1253;107003;-67
2024/03/24 05:55:22;;;;;;;15.90;10.10;;;;;;;4.03;88.34;98810.39;103581;1256;97896;-67
2024/03/24 05:57:49;;;;;;;18.40;11.80;;;;;;;4.10;88.36;98809.98;103310;1253;138347;-68
2024/03/24 06:00:17;;;;;;;18.00;11.80;;;;;;;4.13;88.06;98810.93;103453;1252;97836;-67
2024/03/24 06:02:44;;;;;;;16.40;11.50;;;;;;;4.15;87.77;98809.17;103734;1253;140040;-67
2024/03/24 06:05:11;;;;;;;21.60;12.60;;;;;;;4.23;87.87;98810.46;103501;1253;107338;-68
2024/03/24 06:07:38;;;;;;;21.40;11.90;;;;;;;4.29;87.65;98811.67;103573;1253;98403;-69
2024/03/24 06:10:05;;;;;;;22.30;12.40;;;;;;;4.29;87.19;98815.10;103478;1256;108611;-68
2024/03/24 06:12:32;;;;;;;18.90;13.40;;;;;;;4.27;87.28;98813.61;103871;1256;97843;-68
2024/03/24 06:14:58;;;;;;;20.00;13.20;;;;;;;4.25;86.91;98815.39;103432;1254;138450;-67
2024/03/24 06:17:25;;;;;;;18.90;13.40;;;;;;;4.23;87.21;98815.27;103451;1253;107586;-68
2024/03/24 06:19:52;;;;;;;21.60;14.40;;;;;;;4.24;87.14;98812.31;103474;1256;138578;-68
2024/03/24 06:22:18;;;;;;;19.70;15.00;;;;;;;4.28;87.32;98811.19;103560;1256;107658;-68
2024/03/24 06:24:45;;;;;;;20.70;15.70;;;;;;;4.27;86.99;98811.73;103579;1253;97750;-68
2024/03/24 06:27:11;;;;;;;24.80;17.30;;;;;;;4.26;86.89;98807.29;103497;1253;138733;-68
2024/03/24 06:29:38;;;;;;;22.40;15.80;;;;;;;4.22;87.12;98809.98;103571;1253;107663;-68
2024/03/24 06:32:06;;;;;;;17.80;15.80;;;;;;;4.21;87.31;98807.77;103228;1253;139630;-68
2024/03/24 06:34:33;;;;;;;20.90;16.10;;;;;;;4.22;87.08;98806.20;104133;1254;107596;-68
2024/03/24 06:37:00;;;;;;;25.10;18.00;;;;;;;4.23;87.16;98805.99;103426;1252;97891;-69
2024/03/24 06:39:26;;;;;;;22.70;17.40;;;;;;;4.21;86.93;98810.67;103382;1256;138353;-67
2024/03/24 06:41:54;;;;;;;19.10;15.50;;;;;;;4.18;86.83;98807.19;102734;1253;1003335;-69
2024/03/24 06:44:23;;;;;;;23.40;16.50;;;;;;;4.14;86.80;98810.90;103469;1253;140032;-69
2024/03/24 06:46:49;;;;;;;24.30;16.10;;;;;;;4.08;86.25;98812.63;103751;1256;105565;-69
2024/03/24 06:49:16;;;;;;;22.30;16.40;;;;;;;4.05;86.57;98807.89;103431;1253;97816;-69
2024/03/24 06:51:43;;;;;;;23.50;16.10;;;;;;;4.06;86.60;98807.52;103924;1252;138171;-72
2024/03/24 06:54:09;;;;;;;22.30;17.00;;;;;;;4.04;86.59;98810.16;103465;1253;106403;-70
2024/03/24 06:56:37;;;;;;;23.70;17.10;;;;;;;4.06;86.85;98803.73;103316;1256;138624;-70
2024/03/24 06:59:04;;;;;;;21.60;15.60;;;;;;;4.06;86.88;98808.72;103473;1254;108947;-70
2024/03/24 07:01:30;;;;;;;22.80;16.50;;;;;;;4.07;86.95;98808.17;103511;1253;97855;-70
2024/03/24 07:03:57;;;;;;;22.40;16.00;;;;;;;4.08;86.85;98816.76;103361;1253;138019;-69
2024/03/24 07:06:24;;;;;;;25.00;16.70;;;;;;;4.08;87.08;98811.58;103481;1253;106565;-72
2024/03/24 07:08:51;;;;;;;25.90;17.00;;;;;;;4.15;87.23;98811.05;103389;1253;138747;-72
2024/03/24 07:11:17;;;;;;;20.60;16.20;;;;;;;4.21;86.87;98812.58;103475;1253;107862;-72
2024/03/24 07:13:44;;;;;;;20.60;15.60;;;;;;;4.25;86.56;98813.52;103454;1256;138878;-70
2024/03/24 07:16:11;;;;;;;23.50;16.10;;;;;;;4.26;86.21;98815.53;103357;1253;112559;-71
2024/03/24 07:18:36;;;;;;;;;;;;;;;4.27;86.09;98817.41;103413;1253;106702;-70
2024/03/24 07:21:03;;;;;;;21.90;15.80;;;;;;;4.27;86.28;98816.36;103758;1253;125384;-69
2024/03/24 07:23:29;;;;;;;21.40;16.10;;;;;;;4.28;86.16;98813.94;103540;1253;107411;-70
2024/03/24 07:25:56;;;;;;;22.00;16.20;;;;;;;4.30;86.15;98820.07;103379;1253;138664;-69
2024/03/24 07:28:23;;;;;;;23.40;16.10;;;;;;;4.30;86.05;98821.60;103681;1253;112980;-71
2024/03/24 07:30:49;;;;;;;23.10;14.90;;;;;;;4.33;86.04;98826.87;103435;1256;108012;-69
2024/03/24 07:33:16;;;;;;;18.00;14.60;;;;;;;4.33;85.55;98833.42;98068;1253;1003567;-71
2024/03/24 07:35:43;;;;;;;19.70;14.80;;;;;;;4.31;85.29;98832.10;103357;1253;107460;-71
2024/03/24 07:38:11;;;;;;;20.80;16.20;;;;;;;4.25;85.16;98831.40;103514;1253;138717;-73
2024/03/24 07:40:38;;;;;;;20.80;15.50;;;;;;;4.22;85.45;98837.00;104770;1253;110813;-72
2024/03/24 07:43:06;;;;;;;20.30;15.50;;;;;;;4.22;85.43;98832.19;103599;1253;109255;-71
2024/03/24 07:45:33;;;;;;;21.70;15.80;;;;;;;4.21;85.29;98835.65;103395;1253;138843;-71
2024/03/24 07:48:00;;;;;;;19.00;15.80;;;;;;;4.22;85.47;98837.67;103423;1253;109079;-68
2024/03/24 07:50:27;;;;;;;22.50;16.20;;;;;;;4.22;85.45;98838.87;103354;1253;138318;-69
2024/03/24 07:52:53;;;;;;;21.90;16.70;;;;;;;4.26;85.46;98838.77;103326;1253;111315;-69
2024/03/24 07:55:23;;;;;;;22.10;16.70;;;;;;;4.29;85.74;98838.49;103349;1253;107400;-69
2024/03/24 07:57:49;;;;;;;23.70;16.40;;;;;;;4.32;85.48;98843.95;103270;1256;138588;-70
2024/03/24 08:00:18;;;;;;;19.20;16.00;;;;;;;4.30;85.38;98844.49;103484;1253;108107;-69
2024/03/24 08:02:44;;;;;;;21.30;15.80;;;;;;;4.28;85.30;98843.19;104677;1253;138770;-69
2024/03/24 08:05:11;;;;;;;22.10;17.50;;;;;;;4.28;85.49;98848.69;104807;1252;110307;-69
2024/03/24 08:07:37;;;;;;;22.10;17.60;;;;;;;4.30;85.55;98847.43;104786;1253;107771;-69
2024/03/24 08:10:05;;;;;;;24.00;18.10;;;;;;;4.32;85.61;98844.81;103950;1252;97715;-69
2024/03/24 08:12:31;;;;;;;21.50;17.80;;;;;;;4.34;85.46;98842.68;103724;1253;106856;-69
2024/03/24 08:14:58;;;;;;;22.70;17.30;;;;;;;4.38;85.60;98845.14;103465;1253;138539;-68
2024/03/24 08:17:24;;;;;;;18.70;15.50;;;;;;;4.38;85.54;98841.16;103600;1256;111931;-68
2024/03/24 08:19:53;;;;;;;19.80;15.90;;;;;;;4.37;85.37;98841.58;103376;1253;138649;-70
2024/03/24 08:22:20;;;;;;;23.10;15.70;;;;;;;4.38;85.23;98846.52;103682;1252;98306;-70
2024/03/24 08:24:46;;;;;;;18.20;13.90;;;;;;;4.42;85.72;98849.98;103516;1256;108420;-70
2024/03/24 08:27:13;;;;;;;19.20;13.90;;;;;;;4.50;85.71;98851.48;103665;1253;138474;-69
2024/03/24 08:29:38;;;;;;;;;;;;;;;4.58;85.17;98856.05;103594;1253;111628;-69
2024/03/24 08:32:06;;;;;;;21.90;12.40;;;;;;;4.60;84.84;98853.92;103477;1253;124613;-69
2024/03/24 08:34:32;;;;;;;17.90;12.60;;;;;;;4.63;84.56;98852.98;103679;1253;97821;-69
2024/03/24 08:36:58;;;;;;;15.90;12.30;;;;;;;4.64;84.27;98853.30;103487;1253;107538;-68
2024/03/24 08:39:23;;;;;;;;;;;;;;;4.67;84.12;98853.75;103415;1253;138674;-70
2024/03/24 08:41:50;;;;;;;16.70;12.50;;;;;;;4.70;84.40;98858.83;103611;1255;111601;-69
2024/03/24 08:44:17;;;;;;;13.90;12.20;;;;;;;4.75;84.17;98862.27;103413;1253;138614;-69
2024/03/24 08:46:43;;;;;;;22.40;13.00;;;;;;;4.79;84.28;98861.10;103616;1253;97791;-69
2024/03/24 08:49:10;;;;;;;16.80;12.70;;;;;;;4.81;84.00;98863.10;103726;1252;107456;-70
2024/03/24 08:51:38;;;;;;;12.70;11.20;;;;;;;4.84;83.86;98863.02;103498;1253;138325;-70
2024/03/24 08:54:05;;;;;;;14.40;11.10;;;;;;;4.90;83.72;98868.20;103736;1256;111216;-70
2024/03/24 08:56:31;;;;;;;14.40;10.80;;;;;;;4.96;83.59;98860.91;103503;1253;138481;-69
2024/03/24 08:58:58;;;;;;;11.60;9.50;;;;;;;5.04;83.21;98858.08;103584;1252;97801;-69
2024/03/24 09:01:26;;;;;;;10.90;9.50;;;;;;;5.12;82.84;98860.39;103696;1254;107655;-69
2024/03/24 09:03:53;;;;;;;12.40;10.00;;;;;;;5.22;82.19;98861.46;103482;1256;138215;-70
2024/03/24 09:06:19;;;;;;;12.70;9.70;;;;;;;5.32;82.09;98865.25;103540;1253;111793;-70
2024/03/24 09:08:46;;;;;;;13.40;9.60;;;;;;;5.43;81.63;98863.35;103374;1253;138234;-70
2024/03/24 09:11:13;;;;;;;10.70;9.30;;;;;;;5.53;81.12;98862.50;103549;1256;97685;-70
2024/03/24 09:13:41;;;;;;;18.10;10.40;;;;;;;5.61;80.60;98866.02;103521;1252;107816;-70
2024/03/24 09:16:08;;;;;;;12.90;10.10;;;;;;;5.68;80.19;98865.27;103761;1253;97794;-70
2024/03/24 09:18:35;;;;;;;14.00;9.50;;;;;;;5.69;79.78;98860.73;103635;1253;110473;-70
2024/03/24 09:21:07;;;;;;;14.40;10.10;;;;;;;5.69;79.56;98866.77;103504;1253;139077;-70
2024/03/24 09:23:35;;;;;;;15.50;9.80;;;;;;;5.72;80.01;98868.55;103651;1253;97666;-71
2024/03/24 09:26:02;;;;;;;13.90;9.40;;;;;;;5.70;79.82;98865.17;104697;1253;138187;-70
2024/03/24 09:28:28;;;;;;;12.60;10.00;;;;;;;5.70;79.90;98872.08;104818;1252;95844;-70
2024/03/24 09:30:59;;;;;;;15.00;10.30;;;;;;;5.68;79.80;98870.94;104849;1253;111275;-70
2024/03/24 09:33:26;;;;;;;12.20;9.30;;;;;;;5.65;79.77;98872.80;104630;1253;138325;-70
2024/03/24 09:35:53;;;;;;;12.50;9.00;;;;;;;5.61;79.36;98870.02;104809;1252;95917;-70
2024/03/24 09:38:19;;;;;;;13.30;9.20;;;;;;;5.58;79.26;98872.54;104682;1253;138340;-71
2024/03/24 09:40:47;;;;;;;12.50;9.30;;;;;;;5.57;79.18;98871.86;104797;1253;95872;-70
2024/03/24 09:43:15;;;;;;;16.00;9.10;;;;;;;5.56;79.01;98872.39;103782;1256;110932;-70
2024/03/24 09:45:42;;;;;;;12.50;8.80;;;;;;;5.58;78.96;98869.60;104669;1253;139235;-69
2024/03/24 09:48:14;;;;;;;15.50;9.70;;;;;;;5.59;79.03;98870.92;104822;1252;95594;-71
2024/03/24 09:50:41;;;;;;;15.40;9.70;;;;;;;5.63;79.06;98870.25;104718;1253;138501;-72
2024/03/24 09:53:08;;;;;;;15.90;9.70;;;;;;;5.75;79.33;98867.44;104852;1252;95774;-70
2024/03/24 09:55:35;;;;;;;10.60;8.50;;;;;;;6.40;80.68;98856.65;104086;1252;111189;-70
2024/03/24 09:58:02;;;;;;;11.90;8.30;;;;;;;7.58;80.66;98852.80;103422;1253;138321;-70
2024/03/24 10:00:37;;;;;;;12.60;8.30;;;;;;;8.56;78.15;98848.33;104840;1252;98105;-70
2024/03/24 10:03:05;;;;;;;12.60;7.20;;;;;;;9.01;76.49;98840.84;104714;1252;137943;-69
2024/03/24 10:05:34;;;;;;;11.90;7.10;;;;;;;9.51;74.93;98834.91;104803;1253;97971;-70
2024/03/24 10:08:02;;;;;;;8.80;6.50;;;;;;;10.34;74.28;98835.25;104226;1253;137995;-71
2024/03/24 10:10:29;;;;;;;7.70;6.10;;;;;;;11.52;73.49;98828.11;103389;1253;107102;-71
2024/03/24 10:12:57;;;;;;;7.50;5.20;;;;;;;12.52;70.60;98818.96;103472;1253;100834;-71
2024/03/24 10:15:26;;;;;;;4.90;3.90;;;;;;;12.88;66.31;98820.67;103372;1256;137809;-70
2024/03/24 10:18:06;;;;;;;5.40;3.60;;;;;;;13.12;63.74;98817.86;103592;1256;99250;-71
2024/03/24 10:20:33;;;;;;;8.60;3.60;;;;;;;13.73;62.92;98811.23;103443;1256;138008;-70
2024/03/24 10:23:00;;;;;;;5.10;3.50;;;;;;;14.52;61.29;98804.83;103457;1252;107167;-72
2024/03/24 10:25:28;;;;;;;4.60;3.40;;;;;;;15.19;60.18;98803.29;103433;1256;99860;-70
2024/03/24 10:27:55;;;;;;;4.70;3.30;;;;;;;15.87;58.72;98788.77;103772;1253;138638;-72
2024/03/24 10:30:22;;;;;;;5.80;3.80;;;;;;;16.40;57.20;98795.23;103459;1256;99113;-76
2024/03/24 10:32:48;;;;;;;6.30;3.80;;;;;;;16.91;56.50;98790.11;103326;1252;137640;-74
2024/03/24 10:35:15;;;;;;;5.90;3.40;;;;;;;16.99;52.22;98792.29;103477;1256;108069;-75
2024/03/24 10:37:43;;;;;;;5.30;3.20;;;;;;;16.58;52.66;98790.31;103537;1254;99120;-74
2024/03/24 10:40:13;;;;;;;4.80;3.50;;;;;;;16.15;51.47;98786.04;103500;1253;106167;-74
2024/03/24 10:42:45;;;;;;;7.90;3.70;;;;;;;15.39;50.61;98782.17;103481;1256;99159;-74
2024/03/24 10:45:15;;;;;;;7.80;4.00;;;;;;;14.63;50.71;98788.85;103341;1256;137647;-74
2024/03/24 10:47:42;;;;;;;5.80;4.30;;;;;;;14.13;51.26;98786.42;103412;1256;107902;-74
2024/03/24 10:50:13;;;;;;;7.30;4.40;;;;;;;13.93;51.13;98785.55;103251;1253;137944;-74
2024/03/24 10:52:43;;;;;;;6.10;4.30;;;;;;;13.54;51.90;98786.82;103374;1253;108256;-74
2024/03/24 10:55:11;;;;;;;9.20;4.40;;;;;;;13.69;53.30;98779.02;104786;1252;97776;-75
2024/03/24 10:57:40;;;;;;;6.20;4.30;;;;;;;14.06;53.53;98770.66;104713;1252;139301;-74
2024/03/24 11:00:13;;;;;;;6.20;4.30;;;;;;;14.06;52.67;98774.03;104792;1252;106774;-75
2024/03/24 11:02:40;;;;;;;7.00;4.60;;;;;;;14.35;52.88;98775.42;103338;1256;137962;-75
2024/03/24 11:05:08;;;;;;;5.10;4.00;;;;;;;14.64;51.51;98775.52;103433;1253;107728;-76
2024/03/24 11:07:37;;;;;;;5.40;4.30;;;;;;;14.73;50.96;98768.35;103426;1253;99161;-77
2024/03/24 11:10:05;;;;;;;5.50;4.00;;;;;;;14.68;50.88;98766.23;103359;1253;137406;-75
2024/03/24 11:12:32;;;;;;;7.10;4.20;;;;;;;14.49;50.63;98762.92;103527;1256;107951;-74
2024/03/24 11:14:59;;;;;;;8.60;4.40;;;;;;;14.20;50.40;98760.90;103356;1253;138362;-77
2024/03/24 11:17:27;;;;;;;5.90;4.10;;;;;;;13.90;50.26;98757.47;103447;1253;107076;-75
2024/03/24 11:19:53;;;;;;;5.40;3.90;;;;;;;13.68;50.37;98752.87;103374;1253;138088;-73